Time;durP1;ratioP1;P1;durP2;ratioP2;P2;SDS_P1;SDS_P2;PMS_P1;PMS_P2;Temp;Humidity;BMP_temperature;BMP_pressure;BME280_temperature;BME280_humidity;BME280_pressure;Samples;Min_cycle;Max_cycle;Signal;HPM_P1;HPM_P2
2023/09/15 00:00:49;;;;;;;8.40;4.10;;;12.50;99.90;;;;;;5050328;28;20472;-77
2023/09/15 00:03:15;;;;;;;7.50;4.00;;;12.50;99.90;;;;;;5050140;28;20444;-77
2023/09/15 00:05:42;;;;;;;5.80;3.50;;;12.40;99.90;;;;;;5049436;28;20985;-77
2023/09/15 00:08:11;;;;;;;8.60;3.63;;;12.40;99.90;;;;;;5050823;28;20460;-77
2023/09/15 00:10:40;;;;;;;8.30;3.90;;;12.40;99.90;;;;;;5050115;28;20452;-77
2023/09/15 00:13:07;;;;;;;13.67;4.20;;;12.40;99.90;;;;;;5050613;28;20472;-77
2023/09/15 00:15:35;;;;;;;6.33;3.93;;;12.30;99.90;;;;;;5050206;28;20502;-77
2023/09/15 00:18:02;;;;;;;13.00;3.77;;;12.20;99.90;;;;;;5051873;28;20463;-77
2023/09/15 00:20:30;;;;;;;9.00;4.03;;;12.20;99.90;;;;;;5054273;28;20452;-77
2023/09/15 00:22:56;;;;;;;8.63;4.03;;;12.20;99.90;;;;;;5055942;28;20552;-77
2023/09/15 00:25:27;;;;;;;6.87;4.50;;;12.20;99.90;;;;;;5050980;28;20516;-77
2023/09/15 00:27:55;;;;;;;6.43;3.77;;;12.10;99.90;;;;;;5053663;28;20458;-77
2023/09/15 00:30:24;;;;;;;12.00;5.13;;;12.00;99.90;;;;;;5054807;28;20467;-77
2023/09/15 00:32:52;;;;;;;10.83;3.50;;;12.00;99.90;;;;;;5053543;28;20518;-78
2023/09/15 00:35:21;;;;;;;6.27;3.83;;;12.00;99.90;;;;;;5053870;28;20452;-77
2023/09/15 00:37:49;;;;;;;6.07;3.73;;;12.00;99.90;;;;;;5053351;28;21041;-76
2023/09/15 00:40:16;;;;;;;8.40;3.60;;;12.00;99.90;;;;;;5054278;28;20543;-77
2023/09/15 00:42:45;;;;;;;7.03;4.27;;;12.00;99.90;;;;;;5053785;28;20529;-77
2023/09/15 00:45:14;;;;;;;11.53;5.20;;;11.90;99.90;;;;;;5053400;28;20480;-77
2023/09/15 00:47:43;;;;;;;6.73;3.77;;;11.90;99.90;;;;;;5053391;28;20463;-77
2023/09/15 00:50:12;;;;;;;9.93;3.90;;;11.80;99.90;;;;;;5053273;28;20960;-77
2023/09/15 00:52:40;;;;;;;13.30;3.90;;;11.80;99.90;;;;;;5054077;28;20484;-77
2023/09/15 00:55:08;;;;;;;7.80;3.97;;;11.80;99.90;;;;;;5053984;28;20884;-77
2023/09/15 00:57:37;;;;;;;8.50;3.70;;;11.80;99.90;;;;;;5054367;28;20551;-77
2023/09/15 01:00:11;;;;;;;14.50;4.30;;;11.70;99.90;;;;;;5053569;28;20514;-77
2023/09/15 01:02:39;;;;;;;9.03;3.97;;;11.70;99.90;;;;;;5053112;28;20562;-78
2023/09/15 01:05:06;;;;;;;7.80;3.90;;;11.70;99.90;;;;;;5053940;28;20479;-77
2023/09/15 01:07:34;;;;;;;6.63;3.97;;;11.70;99.90;;;;;;5053956;28;20466;-77
2023/09/15 01:10:01;;;;;;;11.13;4.30;;;11.70;99.90;;;;;;5053159;28;20464;-77
2023/09/15 01:12:28;;;;;;;5.43;3.60;;;11.70;99.90;;;;;;5052766;28;20492;-77
2023/09/15 01:14:54;;;;;;;9.47;4.50;;;11.70;99.90;;;;;;5053281;28;20819;-77
2023/09/15 01:17:27;;;;;;;7.13;4.40;;;11.70;99.90;;;;;;5053099;28;20908;-77
2023/09/15 01:20:06;;;;;;;5.47;4.10;;;11.70;99.90;;;;;;5052133;28;20461;-77
2023/09/15 01:23:01;;;;;;;10.43;4.50;;;11.70;99.90;;;;;;5052507;28;21013;-77
2023/09/15 01:25:56;;;;;;;8.00;4.30;;;11.70;99.90;;;;;;5052844;28;20567;-77
2023/09/15 01:28:49;;;;;;;14.30;4.40;;;11.70;99.90;;;;;;5052711;28;20461;-77
2023/09/15 01:31:18;;;;;;;11.37;4.60;;;11.70;99.90;;;;;;5047750;28;20541;-76
2023/09/15 01:33:46;;;;;;;9.07;4.77;;;11.70;99.90;;;;;;5052508;28;20510;-77
2023/09/15 01:36:13;;;;;;;12.67;4.17;;;11.70;99.90;;;;;;5053366;28;20452;-76
2023/09/15 01:38:39;;;;;;;10.03;5.00;;;11.70;99.90;;;;;;5052107;28;20843;-77
2023/09/15 01:41:06;;;;;;;10.10;4.63;;;11.70;99.90;;;;;;5052588;28;20473;-77
2023/09/15 01:43:32;;;;;;;5.90;4.43;;;11.70;99.90;;;;;;5052347;28;20456;-77
2023/09/15 01:45:59;;;;;;;8.13;4.67;;;11.60;99.90;;;;;;5051686;28;20484;-77
2023/09/15 01:48:27;;;;;;;7.10;4.40;;;11.60;99.90;;;;;;5053042;28;20509;-77
2023/09/15 01:50:56;;;;;;;8.20;4.43;;;11.60;99.90;;;;;;5052486;28;20510;-77
2023/09/15 01:53:23;;;;;;;8.63;4.00;;;11.60;99.90;;;;;;5052710;28;20449;-77
2023/09/15 01:55:50;;;;;;;6.87;4.10;;;11.60;99.90;;;;;;5051514;28;20448;-77
2023/09/15 01:58:18;;;;;;;6.03;3.83;;;11.50;99.90;;;;;;5052309;28;20490;-77
2023/09/15 02:00:45;;;;;;;8.83;4.90;;;11.50;99.90;;;;;;5051616;28;20848;-77
2023/09/15 02:03:12;;;;;;;7.37;3.60;;;11.40;99.90;;;;;;5052633;28;20821;-77
2023/09/15 02:05:40;;;;;;;5.97;4.67;;;11.40;99.90;;;;;;5052631;28;20840;-77
2023/09/15 02:08:07;;;;;;;8.40;3.90;;;11.40;99.90;;;;;;5052386;28;20452;-77
2023/09/15 02:10:33;;;;;;;11.97;4.13;;;11.40;99.90;;;;;;5052622;28;20452;-78
2023/09/15 02:13:00;;;;;;;8.73;3.90;;;11.40;99.90;;;;;;5051611;28;21075;-77
2023/09/15 02:15:27;;;;;;;8.00;4.57;;;11.30;99.90;;;;;;5051778;28;20487;-77
2023/09/15 02:17:53;;;;;;;10.73;4.60;;;11.40;99.90;;;;;;5051519;28;20453;-76
2023/09/15 02:20:20;;;;;;;10.33;4.07;;;11.40;99.90;;;;;;5052086;28;20468;-78
2023/09/15 02:22:48;;;;;;;5.37;4.07;;;11.40;99.90;;;;;;5052042;28;20476;-77
2023/09/15 02:25:16;;;;;;;8.03;3.80;;;11.40;99.90;;;;;;5051358;28;20492;-77
2023/09/15 02:27:43;;;;;;;11.20;4.23;;;11.40;99.90;;;;;;5051918;28;20547;-77
2023/09/15 02:30:10;;;;;;;12.97;4.27;;;11.40;99.90;;;;;;5052080;28;20502;-77
2023/09/15 02:32:37;;;;;;;13.47;4.87;;;11.40;99.90;;;;;;5051817;28;20484;-77
2023/09/15 02:35:04;;;;;;;8.40;4.20;;;11.40;99.90;;;;;;5054847;28;20452;-78
2023/09/15 02:37:31;;;;;;;9.83;4.33;;;11.40;99.90;;;;;;5051623;28;20515;-77
2023/09/15 02:39:59;;;;;;;9.50;4.47;;;11.40;99.90;;;;;;5051674;28;20453;-77
2023/09/15 02:42:26;;;;;;;5.70;3.70;;;11.30;99.90;;;;;;5051635;28;20543;-77
2023/09/15 02:44:52;;;;;;;8.07;4.03;;;11.30;99.90;;;;;;5052028;28;20530;-77
2023/09/15 02:47:19;;;;;;;5.67;3.77;;;11.30;99.90;;;;;;5052049;28;21103;-77
2023/09/15 02:49:46;;;;;;;8.50;4.00;;;11.20;99.90;;;;;;5054861;28;20456;-77
2023/09/15 02:52:13;;;;;;;7.63;4.93;;;11.20;99.90;;;;;;5051392;28;20878;-77
2023/09/15 02:54:39;;;;;;;17.30;5.60;;;11.20;99.90;;;;;;5051858;28;20460;-77
2023/09/15 02:57:07;;;;;;;6.53;4.83;;;11.20;99.90;;;;;;5051293;28;20460;-79
2023/09/15 02:59:34;;;;;;;10.57;4.50;;;11.20;99.90;;;;;;5052775;28;20453;-78
2023/09/15 03:02:00;;;;;;;6.97;4.40;;;11.20;99.90;;;;;;5053557;28;20491;-78
2023/09/15 03:04:27;;;;;;;8.57;4.60;;;11.20;99.90;;;;;;5054324;28;20460;-78
2023/09/15 03:06:54;;;;;;;13.40;4.70;;;11.10;99.90;;;;;;5052787;28;20549;-78
2023/09/15 03:09:20;;;;;;;6.87;4.00;;;11.10;99.90;;;;;;5051227;28;20969;-78
2023/09/15 03:11:47;;;;;;;6.87;4.60;;;11.00;99.90;;;;;;5051608;28;20485;-78
2023/09/15 03:14:16;;;;;;;6.93;4.60;;;11.00;99.90;;;;;;5052266;28;20461;-78
2023/09/15 03:16:43;;;;;;;10.37;5.20;;;11.00;99.90;;;;;;5051963;28;20485;-78
2023/09/15 03:19:10;;;;;;;9.80;4.63;;;11.00;99.90;;;;;;5052115;28;20970;-77
2023/09/15 03:21:36;;;;;;;7.37;4.30;;;11.00;99.90;;;;;;5052666;28;20480;-78
2023/09/15 03:24:03;;;;;;;9.47;4.90;;;10.90;99.90;;;;;;5053505;28;20451;-77
2023/09/15 03:26:31;;;;;;;5.80;3.93;;;11.00;99.90;;;;;;5052193;28;20579;-78
2023/09/15 03:28:57;;;;;;;6.93;4.40;;;10.90;99.90;;;;;;5053113;28;20465;-78
2023/09/15 03:31:25;;;;;;;10.10;5.00;;;10.90;99.90;;;;;;5052014;28;20530;-78
2023/09/15 03:33:52;;;;;;;16.73;4.77;;;10.90;99.90;;;;;;5051910;28;20527;-78
2023/09/15 03:36:19;;;;;;;9.97;4.73;;;10.90;99.90;;;;;;5051639;28;20514;-77
2023/09/15 03:38:45;;;;;;;14.93;5.10;;;10.80;99.90;;;;;;5050877;28;20448;-77
2023/09/15 03:41:12;;;;;;;6.60;4.60;;;10.80;99.90;;;;;;5051824;28;20472;-78
2023/09/15 03:43:38;;;;;;;10.37;4.43;;;10.80;99.90;;;;;;5051639;28;20506;-78
2023/09/15 03:46:05;;;;;;;6.57;4.53;;;10.80;99.90;;;;;;5051342;28;20488;-78
2023/09/15 03:48:33;;;;;;;6.20;4.40;;;10.80;99.90;;;;;;5053132;28;20463;-78
2023/09/15 03:51:01;;;;;;;15.43;6.40;;;10.80;99.90;;;;;;5051125;28;20463;-78
2023/09/15 03:53:27;;;;;;;9.83;5.40;;;10.80;99.90;;;;;;5052843;28;20452;-77
2023/09/15 03:55:54;;;;;;;9.97;5.60;;;10.80;99.90;;;;;;5055304;28;20453;-78
2023/09/15 03:58:21;;;;;;;14.43;4.90;;;10.70;99.90;;;;;;5054668;28;20539;-78
2023/09/15 04:00:47;;;;;;;8.10;5.33;;;10.70;99.90;;;;;;5054993;28;20453;-78
2023/09/15 04:03:14;;;;;;;14.53;4.90;;;10.70;99.90;;;;;;5054682;28;20810;-78
2023/09/15 04:05:42;;;;;;;13.73;5.40;;;10.60;99.90;;;;;;5055091;28;20483;-77
2023/09/15 04:08:09;;;;;;;12.23;5.20;;;10.60;99.90;;;;;;5055082;28;20456;-78
2023/09/15 04:10:35;;;;;;;7.73;5.30;;;10.60;99.90;;;;;;5054211;28;20518;-78
2023/09/15 04:13:03;;;;;;;10.93;4.87;;;10.60;99.90;;;;;;5053740;28;20985;-78
2023/09/15 04:15:30;;;;;;;11.53;4.83;;;10.60;99.90;;;;;;5053933;28;21018;-78
2023/09/15 04:17:56;;;;;;;10.93;5.37;;;10.50;99.90;;;;;;5054104;28;20467;-78
2023/09/15 04:20:23;;;;;;;9.20;4.50;;;10.50;99.90;;;;;;5055004;28;20881;-78
2023/09/15 04:22:51;;;;;;;11.20;5.40;;;10.50;99.90;;;;;;5054545;28;20480;-78
2023/09/15 04:25:19;;;;;;;7.40;5.00;;;10.50;99.90;;;;;;5055024;28;21048;-78
2023/09/15 04:27:46;;;;;;;13.00;5.03;;;10.50;99.90;;;;;;5055899;28;20492;-77
2023/09/15 04:30:13;;;;;;;18.43;5.80;;;10.50;99.90;;;;;;5054240;28;20457;-78
2023/09/15 04:32:39;;;;;;;8.20;5.03;;;10.50;99.90;;;;;;5058815;28;20502;-78
2023/09/15 04:35:08;;;;;;;9.80;5.00;;;10.50;99.90;;;;;;5056263;28;20456;-77
2023/09/15 04:37:35;;;;;;;16.53;5.07;;;10.50;99.90;;;;;;5055984;28;20459;-77
2023/09/15 04:40:06;;;;;;;11.27;4.97;;;10.50;99.90;;;;;;5056250;28;20456;-77
2023/09/15 04:42:33;;;;;;;8.67;5.50;;;10.50;99.90;;;;;;5053144;28;21096;-75
2023/09/15 04:45:00;;;;;;;8.07;5.03;;;10.40;99.90;;;;;;5053003;28;20464;-75
2023/09/15 04:47:31;;;;;;;11.33;5.20;;;10.40;99.90;;;;;;5052956;28;20571;-75
2023/09/15 04:49:58;;;;;;;11.70;4.53;;;10.40;99.90;;;;;;5053163;28;20857;-75
2023/09/15 04:52:24;;;;;;;9.50;4.80;;;10.40;99.90;;;;;;5052806;28;20470;-75
2023/09/15 04:54:51;;;;;;;27.37;6.17;;;10.40;99.90;;;;;;5048636;28;20514;-75
2023/09/15 04:57:20;;;;;;;7.90;5.27;;;10.40;99.90;;;;;;5052889;28;20836;-75
2023/09/15 04:59:47;;;;;;;6.50;5.00;;;10.40;99.90;;;;;;5053357;28;20539;-75
2023/09/15 05:02:14;;;;;;;9.23;5.40;;;10.40;99.90;;;;;;5056107;28;20898;-75
2023/09/15 05:04:41;;;;;;;8.80;5.07;;;10.40;99.90;;;;;;5052522;28;20452;-75
2023/09/15 05:07:08;;;;;;;8.93;5.07;;;10.40;99.90;;;;;;5053089;28;20484;-75
2023/09/15 05:09:34;;;;;;;8.87;4.43;;;10.40;99.90;;;;;;5052739;28;20460;-75
2023/09/15 05:12:01;;;;;;;11.13;4.90;;;10.40;99.90;;;;;;5052204;28;20488;-75
2023/09/15 05:14:30;;;;;;;13.37;5.67;;;10.40;99.90;;;;;;5052513;28;20934;-74
2023/09/15 05:16:56;;;;;;;9.80;5.17;;;10.40;99.90;;;;;;5052478;28;20452;-74
2023/09/15 05:19:23;;;;;;;8.90;5.27;;;10.40;99.90;;;;;;5052448;28;20509;-75
2023/09/15 05:21:50;;;;;;;12.93;5.60;;;10.40;99.90;;;;;;5055275;28;20511;-75
2023/09/15 05:24:17;;;;;;;7.63;5.43;;;10.40;99.90;;;;;;5052155;28;20488;-75
2023/09/15 05:26:43;;;;;;;7.50;4.80;;;10.40;99.90;;;;;;5049984;28;21077;-75
2023/09/15 05:29:11;;;;;;;15.47;5.93;;;10.40;99.90;;;;;;5052947;28;20972;-75
2023/09/15 05:31:39;;;;;;;9.53;5.33;;;10.40;99.90;;;;;;5051494;28;20472;-75
2023/09/15 05:34:05;;;;;;;14.00;5.10;;;10.40;99.90;;;;;;5051378;28;20444;-75
2023/09/15 05:36:33;;;;;;;10.70;5.83;;;10.50;99.90;;;;;;5052304;28;20460;-75
2023/09/15 05:39:00;;;;;;;7.47;4.77;;;10.70;99.90;;;;;;5052863;28;20552;-75
2023/09/15 05:41:26;;;;;;;14.00;4.83;;;10.90;99.90;;;;;;5048548;28;21067;-75
2023/09/15 05:43:53;;;;;;;11.77;4.80;;;11.10;99.90;;;;;;5051043;28;20954;-74
2023/09/15 05:46:20;;;;;;;7.83;5.43;;;11.40;99.90;;;;;;5051038;28;20480;-74
2023/09/15 05:48:48;;;;;;;7.60;4.80;;;11.70;99.90;;;;;;5051319;28;20456;-75
2023/09/15 05:51:15;;;;;;;12.23;4.73;;;11.90;99.90;;;;;;5053516;28;20477;-76
2023/09/15 05:53:42;;;;;;;6.70;4.30;;;12.10;99.90;;;;;;5050910;28;20465;-75
2023/09/15 05:56:08;;;;;;;10.13;5.70;;;12.30;99.90;;;;;;5051536;28;20510;-76
2023/09/15 05:58:35;;;;;;;8.03;4.20;;;12.60;99.90;;;;;;5051574;28;20810;-76
2023/09/15 06:01:02;;;;;;;5.80;4.40;;;12.80;99.90;;;;;;5051799;28;20452;-75
2023/09/15 06:03:28;;;;;;;6.60;4.70;;;13.10;99.90;;;;;;5051128;28;20460;-76
2023/09/15 06:05:56;;;;;;;9.27;4.90;;;13.50;99.90;;;;;;5050191;28;20957;-76
2023/09/15 06:08:23;;;;;;;5.77;4.40;;;13.70;99.90;;;;;;5050201;28;20534;-75
2023/09/15 06:10:50;;;;;;;6.87;4.37;;;13.90;99.90;;;;;;5050582;28;20514;-75
2023/09/15 06:13:16;;;;;;;8.20;4.23;;;14.20;99.90;;;;;;5051041;28;20480;-76
2023/09/15 06:15:43;;;;;;;8.57;3.90;;;14.40;99.90;;;;;;5049465;28;20453;-75
2023/09/15 06:18:10;;;;;;;10.03;4.50;;;14.60;99.90;;;;;;5050288;28;20510;-75
2023/09/15 06:20:36;;;;;;;5.70;4.47;;;15.00;99.90;;;;;;5050408;28;20461;-74
2023/09/15 06:23:04;;;;;;;12.30;3.83;;;15.20;99.90;;;;;;5050883;28;20476;-75
2023/09/15 06:25:32;;;;;;;4.87;3.67;;;15.40;99.90;;;;;;5053829;28;21476;-75
2023/09/15 06:27:59;;;;;;;10.73;4.37;;;15.70;99.90;;;;;;5049713;28;21004;-75
2023/09/15 06:30:26;;;;;;;9.03;4.00;;;16.00;99.90;;;;;;5049660;28;20844;-76
2023/09/15 06:32:54;;;;;;;10.53;4.20;;;16.30;99.90;;;;;;5051416;28;20522;-75
2023/09/15 06:35:21;;;;;;;10.63;4.10;;;16.50;99.90;;;;;;5051207;28;20433;-75
2023/09/15 06:37:47;;;;;;;15.83;5.20;;;16.60;99.90;;;;;;5051554;28;20579;-74
2023/09/15 06:40:15;;;;;;;6.60;3.90;;;16.70;99.90;;;;;;5049957;28;20513;-74
2023/09/15 06:42:42;;;;;;;6.17;3.97;;;16.80;99.90;;;;;;5049827;28;20530;-75
2023/09/15 06:45:10;;;;;;;9.73;4.20;;;16.90;99.90;;;;;;5049579;28;20452;-75
2023/09/15 06:47:37;;;;;;;8.27;3.90;;;17.00;99.90;;;;;;5049895;28;20571;-74
2023/09/15 06:50:04;;;;;;;6.57;4.20;;;17.30;99.90;;;;;;5050333;28;21033;-75
2023/09/15 06:52:31;;;;;;;6.90;3.67;;;17.60;99.90;;;;;;5052093;28;20568;-74
2023/09/15 06:54:57;;;;;;;9.90;4.07;;;17.80;99.90;;;;;;5050246;28;20433;-75
2023/09/15 06:57:25;;;;;;;8.23;3.73;;;18.10;99.90;;;;;;5051309;28;20452;-76
2023/09/15 06:59:52;;;;;;;10.80;3.83;;;18.20;99.90;;;;;;5047986;28;20464;-75
2023/09/15 07:02:19;;;;;;;10.43;4.10;;;18.30;99.90;;;;;;5050123;28;20447;-74
2023/09/15 07:04:46;;;;;;;5.77;3.90;;;18.60;99.90;;;;;;5050345;28;20468;-74
2023/09/15 07:07:12;;;;;;;6.23;3.70;;;18.50;99.90;;;;;;5053129;28;20967;-74
2023/09/15 07:09:39;;;;;;;7.33;4.20;;;18.30;99.90;;;;;;5050543;28;20460;-75
2023/09/15 07:12:06;;;;;;;8.00;4.03;;;18.00;99.90;;;;;;5052298;28;20465;-74
2023/09/15 07:14:34;;;;;;;7.83;3.77;;;17.80;99.90;;;;;;5051463;28;20438;-76
2023/09/15 07:17:01;;;;;;;13.07;4.10;;;17.80;99.90;;;;;;5050123;28;20441;-76
2023/09/15 07:19:27;;;;;;;15.03;3.90;;;18.00;99.90;;;;;;5053407;28;20256;-76
2023/09/15 07:21:54;;;;;;;9.07;4.10;;;18.10;99.90;;;;;;5051631;28;20561;-75
2023/09/15 07:24:21;;;;;;;7.47;4.00;;;18.30;99.90;;;;;;5045401;28;20428;-75
2023/09/15 07:26:47;;;;;;;6.40;3.70;;;18.50;99.90;;;;;;5048792;28;20870;-75
2023/09/15 07:29:14;;;;;;;9.63;4.00;;;18.50;99.90;;;;;;5049721;28;20518;-75
2023/09/15 07:31:42;;;;;;;8.33;4.50;;;18.50;99.90;;;;;;5050618;28;20480;-75
2023/09/15 07:34:09;;;;;;;5.93;4.27;;;18.40;99.90;;;;;;5050119;28;20839;-75
2023/09/15 07:36:36;;;;;;;8.03;4.17;;;18.60;99.90;;;;;;5049907;28;20456;-75
2023/09/15 07:39:04;;;;;;;10.13;4.07;;;18.60;99.90;;;;;;5045891;28;20514;-75
2023/09/15 07:41:31;;;;;;;10.30;4.30;;;18.70;99.90;;;;;;5050080;28;20857;-75
2023/09/15 07:44:00;;;;;;;8.00;4.20;;;18.80;99.90;;;;;;5049800;28;20452;-75
2023/09/15 07:46:27;;;;;;;6.30;4.10;;;19.00;99.90;;;;;;5053755;28;20455;-75
2023/09/15 07:48:55;;;;;;;15.60;5.20;;;19.10;99.90;;;;;;5050043;28;20488;-76
2023/09/15 07:51:22;;;;;;;6.20;4.67;;;19.20;99.90;;;;;;5049655;28;20472;-76
2023/09/15 07:53:48;;;;;;;7.10;5.30;;;19.30;99.90;;;;;;5050205;28;20452;-75
2023/09/15 07:56:15;;;;;;;8.37;4.70;;;19.50;99.90;;;;;;5049069;28;20452;-75
2023/09/15 07:58:41;;;;;;;7.40;4.17;;;19.70;99.90;;;;;;5049480;28;21096;-76
2023/09/15 08:01:08;;;;;;;6.50;4.57;;;19.90;99.90;;;;;;5052339;28;20480;-76
2023/09/15 08:03:35;;;;;;;9.00;5.20;;;20.00;99.90;;;;;;5051203;28;20530;-76
2023/09/15 08:06:03;;;;;;;7.53;4.90;;;20.10;99.90;;;;;;5073589;28;20475;-77
2023/09/15 08:08:30;;;;;;;8.53;4.60;;;20.30;99.90;;;;;;5071367;28;20488;-75
2023/09/15 08:10:56;;;;;;;8.63;4.50;;;20.50;99.90;;;;;;5069233;28;20482;-76
2023/09/15 08:13:23;;;;;;;4.93;4.43;;;20.60;99.90;;;;;;5071710;28;20436;-76
2023/09/15 08:15:51;;;;;;;7.60;4.07;;;20.60;99.90;;;;;;5068927;28;20466;-78
2023/09/15 08:18:18;;;;;;;7.22;4.50;;;20.80;99.90;;;;;;5055071;28;20534;-75
2023/09/15 08:20:45;;;;;;;7.23;5.53;;;20.90;99.90;;;;;;5053845;28;20206;-75
2023/09/15 08:23:13;;;;;;;6.73;4.67;;;21.10;99.90;;;;;;5050184;28;20461;-75
2023/09/15 08:25:40;;;;;;;7.80;5.70;;;21.20;99.90;;;;;;5048970;28;20460;-74
2023/09/15 08:28:07;;;;;;;16.03;5.93;;;21.20;99.90;;;;;;5049798;28;20493;-75
2023/09/15 08:30:35;;;;;;;12.17;7.10;;;21.30;99.90;;;;;;5052260;28;20543;-76
2023/09/15 08:33:02;;;;;;;8.20;6.90;;;21.30;99.90;;;;;;5049598;28;20483;-75
2023/09/15 08:35:29;;;;;;;11.63;6.70;;;21.10;99.90;;;;;;5048144;28;20529;-75
2023/09/15 08:37:56;;;;;;;8.93;7.00;;;21.20;99.90;;;;;;5050642;28;20487;-75
2023/09/15 08:40:24;;;;;;;8.73;6.60;;;21.30;99.90;;;;;;5053503;28;20470;-75
2023/09/15 08:42:50;;;;;;;9.67;6.77;;;21.20;99.90;;;;;;5047501;28;20545;-75
2023/09/15 08:45:20;;;;;;;8.67;6.53;;;21.30;99.90;;;;;;5048423;28;20516;-74
2023/09/15 08:47:50;;;;;;;10.93;6.43;;;21.50;99.90;;;;;;5052548;28;20491;-74
2023/09/15 08:50:18;;;;;;;15.60;6.80;;;21.60;99.90;;;;;;5046656;28;21016;-75
2023/09/15 08:52:44;;;;;;;7.50;6.67;;;21.60;99.90;;;;;;5049521;28;20483;-75
2023/09/15 08:55:12;;;;;;;9.30;6.77;;;21.60;99.90;;;;;;5054481;28;20452;-75
2023/09/15 08:57:41;;;;;;;10.47;7.37;;;21.70;99.90;;;;;;5052183;28;20459;-75
2023/09/15 09:00:09;;;;;;;9.50;6.60;;;21.80;99.90;;;;;;5046993;28;20450;-76
2023/09/15 09:02:36;;;;;;;8.40;6.80;;;22.00;99.90;;;;;;5057645;28;20237;-75
2023/09/15 09:05:02;;;;;;;9.63;6.43;;;22.20;99.90;;;;;;5052982;28;20495;-76
2023/09/15 09:07:30;;;;;;;12.47;7.27;;;22.40;99.90;;;;;;5052214;28;21080;-76
2023/09/15 09:09:58;;;;;;;11.10;8.20;;;22.60;99.90;;;;;;5052380;28;20510;-76
2023/09/15 09:12:25;;;;;;;8.37;7.57;;;22.90;99.90;;;;;;5052479;28;20538;-77
2023/09/15 09:14:56;;;;;;;13.70;7.37;;;22.90;99.90;;;;;;5050732;28;20946;-76
2023/09/15 09:17:23;;;;;;;8.13;7.20;;;22.50;99.90;;;;;;5053531;28;20535;-75
2023/09/15 09:19:51;;;;;;;8.85;6.78;;;22.30;99.90;;;;;;5051643;28;20531;-75
2023/09/15 09:22:18;;;;;;;8.10;7.30;;;22.30;99.90;;;;;;5052133;28;20228;-76
2023/09/15 09:24:45;;;;;;;9.73;6.67;;;22.10;99.90;;;;;;5052576;28;20445;-75
2023/09/15 09:27:13;;;;;;;11.10;6.30;;;22.20;99.90;;;;;;5052977;28;20647;-75
2023/09/15 09:29:41;;;;;;;10.27;6.73;;;22.60;99.90;;;;;;5054826;28;20480;-76
2023/09/15 09:32:14;;;;;;;8.47;7.30;;;22.60;99.90;;;;;;5052047;28;20468;-75
2023/09/15 09:34:41;;;;;;;7.83;5.97;;;22.40;99.90;;;;;;5054327;28;20452;-75
2023/09/15 09:37:08;;;;;;;12.80;6.50;;;22.10;99.90;;;;;;5052010;28;20471;-76
2023/09/15 09:39:35;;;;;;;8.87;6.00;;;22.40;99.90;;;;;;5052196;28;20464;-75
2023/09/15 09:42:03;;;;;;;9.70;6.50;;;22.40;99.90;;;;;;5049428;28;20516;-74
2023/09/15 09:44:30;;;;;;;14.87;7.30;;;22.80;99.90;;;;;;5052003;28;20911;-75
2023/09/15 09:46:58;;;;;;;14.53;7.63;;;23.00;99.90;;;;;;5051655;28;20449;-74
2023/09/15 09:49:26;;;;;;;8.97;6.13;;;23.00;99.90;;;;;;5052418;28;20538;-74
2023/09/15 09:51:53;;;;;;;7.00;6.03;;;23.20;99.90;;;;;;5043924;28;20732;-72
2023/09/15 09:54:19;;;;;;;7.30;6.00;;;23.50;99.90;;;;;;5055320;28;20458;-72
2023/09/15 09:56:50;;;;;;;11.53;6.67;;;23.90;99.90;;;;;;5057257;28;20464;-72
2023/09/15 09:59:17;;;;;;;8.43;5.70;;;24.10;99.90;;;;;;5048598;28;20813;-73
2023/09/15 10:01:43;;;;;;;11.23;7.20;;;24.30;99.90;;;;;;5056816;28;20476;-74
2023/09/15 10:04:10;;;;;;;7.30;6.23;;;24.50;99.90;;;;;;5051776;28;20444;-73
2023/09/15 10:06:38;;;;;;;7.20;5.90;;;24.70;99.90;;;;;;5050243;28;20804;-73
2023/09/15 10:09:06;;;;;;;7.97;6.50;;;24.60;99.90;;;;;;5051639;28;20484;-72
2023/09/15 10:11:34;;;;;;;10.73;6.23;;;24.70;99.90;;;;;;5050954;28;20943;-72
2023/09/15 10:14:02;;;;;;;8.70;6.53;;;24.70;99.90;;;;;;5052829;28;20452;-73
2023/09/15 10:16:31;;;;;;;9.17;6.10;;;24.90;99.90;;;;;;5058600;28;20452;-74
2023/09/15 10:18:58;;;;;;;8.00;6.60;;;24.90;99.90;;;;;;5051887;28;20494;-75
2023/09/15 10:21:26;;;;;;;6.60;5.90;;;24.90;99.90;;;;;;5049363;28;20468;-73
2023/09/15 10:24:02;;;;;;;11.03;6.40;;;24.80;99.90;;;;;;5051498;28;20969;-73
2023/09/15 10:26:29;;;;;;;6.87;5.70;;;24.90;99.90;;;;;;5053028;28;20467;-72
2023/09/15 10:28:55;;;;;;;9.00;5.03;;;24.80;99.90;;;;;;5055715;28;20496;-71
2023/09/15 10:31:23;;;;;;;8.43;6.13;;;24.50;99.90;;;;;;5051561;28;20500;-75
2023/09/15 10:33:50;;;;;;;8.00;6.53;;;23.90;99.90;;;;;;5051202;28;20821;-75
2023/09/15 10:36:17;;;;;;;9.50;6.40;;;23.80;99.90;;;;;;5050944;28;20463;-77
2023/09/15 10:38:45;;;;;;;8.03;5.60;;;23.60;99.90;;;;;;5058684;28;20480;-76
2023/09/15 10:41:25;;;;;;;8.63;5.90;;;23.40;99.90;;;;;;5050633;28;20482;-75
2023/09/15 10:43:52;;;;;;;9.87;5.90;;;23.00;99.90;;;;;;5047847;28;20444;-74
2023/09/15 10:46:18;;;;;;;9.60;6.10;;;22.70;99.90;;;;;;5051113;28;20441;-75
2023/09/15 10:48:47;;;;;;;6.30;5.70;;;22.80;99.90;;;;;;5046672;28;20488;-72
2023/09/15 10:51:16;;;;;;;10.40;6.43;;;22.50;99.90;;;;;;5050236;28;20468;-74
2023/09/15 10:53:44;;;;;;;6.97;6.27;;;22.50;99.90;;;;;;5049666;28;20496;-75
2023/09/15 10:56:13;;;;;;;6.13;5.57;;;22.70;99.90;;;;;;5057047;28;20542;-74
2023/09/15 10:58:40;;;;;;;6.67;5.73;;;23.00;99.90;;;;;;5052336;28;20453;-76
2023/09/15 11:01:09;;;;;;;8.23;5.97;;;23.30;99.90;;;;;;5046313;28;20468;-74
2023/09/15 11:03:37;;;;;;;7.03;5.57;;;23.70;99.90;;;;;;5050575;28;20492;-74
2023/09/15 11:06:08;;;;;;;8.50;6.00;;;23.90;99.90;;;;;;5049475;28;20526;-73
2023/09/15 11:08:36;;;;;;;5.67;5.17;;;24.00;99.90;;;;;;5049755;28;20569;-75
2023/09/15 11:11:04;;;;;;;6.97;5.40;;;24.10;99.90;;;;;;5050003;28;20460;-75
2023/09/15 11:13:34;;;;;;;5.60;5.03;;;24.30;99.90;;;;;;5050054;28;20464;-73
2023/09/15 11:16:01;;;;;;;6.67;4.63;;;24.40;99.90;;;;;;5051153;28;20449;-74
2023/09/15 11:18:28;;;;;;;7.03;5.03;;;24.40;99.90;;;;;;5053612;28;20455;-73
2023/09/15 11:20:55;;;;;;;6.40;5.47;;;24.40;99.90;;;;;;5049724;28;21158;-75
2023/09/15 11:23:24;;;;;;;6.60;5.63;;;24.00;99.90;;;;;;5050304;28;20501;-74
2023/09/15 11:25:59;;;;;;;7.33;5.47;;;23.90;99.90;;;;;;5048871;28;20463;-74
2023/09/15 11:28:26;;;;;;;8.13;5.77;;;24.20;99.90;;;;;;5050341;28;20851;-74
2023/09/15 11:30:54;;;;;;;7.40;5.40;;;24.00;99.90;;;;;;5050337;28;20506;-75
2023/09/15 11:33:22;;;;;;;9.93;5.57;;;24.10;99.90;;;;;;5050263;28;20456;-74
2023/09/15 11:35:49;;;;;;;6.73;5.97;;;23.90;99.90;;;;;;5050158;28;20456;-74
2023/09/15 11:38:15;;;;;;;14.00;6.13;;;24.20;99.90;;;;;;5049954;28;21004;-74
2023/09/15 11:40:46;;;;;;;8.33;6.00;;;24.30;99.90;;;;;;5050017;28;20953;-72
2023/09/15 11:43:13;;;;;;;7.80;5.60;;;24.20;99.90;;;;;;5049960;28;20949;-74
2023/09/15 11:45:40;;;;;;;9.40;6.57;;;24.00;99.90;;;;;;5049808;28;20444;-74
2023/09/15 11:48:09;;;;;;;13.10;5.50;;;23.90;99.90;;;;;;5050277;28;20468;-73
2023/09/15 11:50:37;;;;;;;6.10;5.50;;;23.90;99.90;;;;;;5050028;28;20456;-73
2023/09/15 11:53:04;;;;;;;9.10;6.23;;;24.10;99.90;;;;;;5050591;28;20468;-73
2023/09/15 11:55:31;;;;;;;6.30;5.47;;;24.20;99.90;;;;;;5050290;28;20444;-72
2023/09/15 11:57:58;;;;;;;7.30;5.33;;;24.40;99.90;;;;;;5050320;28;20440;-72
2023/09/15 12:00:28;;;;;;;12.13;5.43;;;24.30;99.90;;;;;;5049797;28;20449;-72
2023/09/15 12:02:56;;;;;;;5.97;5.07;;;24.10;99.90;;;;;;5042464;28;20491;-72
2023/09/15 12:05:24;;;;;;;7.20;5.03;;;24.20;99.90;;;;;;5050189;28;20464;-73
2023/09/15 12:07:51;;;;;;;7.80;4.20;;;24.40;99.90;;;;;;5050040;28;20452;-72
2023/09/15 12:10:19;;;;;;;4.50;4.10;;;24.70;99.90;;;;;;5050132;28;20561;-71
2023/09/15 12:12:46;;;;;;;5.07;4.30;;;25.10;99.90;;;;;;5049198;28;20484;-71
2023/09/15 12:15:14;;;;;;;6.93;4.80;;;25.30;99.90;;;;;;5053291;28;20455;-71
2023/09/15 12:17:42;;;;;;;5.70;4.20;;;25.20;99.90;;;;;;5053527;28;20510;-71
2023/09/15 12:20:09;;;;;;;7.80;4.90;;;24.90;99.90;;;;;;5053305;28;20527;-71
2023/09/15 12:22:40;;;;;;;9.67;5.00;;;24.80;99.90;;;;;;5056674;28;20827;-72
2023/09/15 12:25:09;;;;;;;5.93;3.83;;;24.90;99.90;;;;;;5049102;28;20484;-72
2023/09/15 12:27:38;;;;;;;4.53;3.90;;;25.00;99.90;;;;;;5052697;28;20460;-71
2023/09/15 12:30:06;;;;;;;3.60;3.30;;;25.10;99.90;;;;;;5057319;28;20537;-71
2023/09/15 12:32:34;;;;;;;6.90;3.90;;;25.10;99.90;;;;;;5053170;28;20557;-71
2023/09/15 12:35:02;;;;;;;16.60;3.70;;;25.00;99.90;;;;;;5052937;28;20452;-72
2023/09/15 12:37:32;;;;;;;5.13;3.87;;;25.10;99.90;;;;;;5052987;28;20502;-71
2023/09/15 12:40:00;;;;;;;3.97;3.07;;;25.40;99.90;;;;;;5054739;28;20491;-71
2023/09/15 12:42:26;;;;;;;6.27;3.27;;;25.70;99.90;;;;;;5050608;28;20464;-71
2023/09/15 12:44:53;;;;;;;4.77;4.27;;;25.80;99.90;;;;;;5053247;28;20571;-71